sensor_id;sensor_type;location;lat;lon;timestamp;P1;durP1;ratioP1;P2;durP2;ratioP2
19358;SDS011;9815;52.334;20.890;2023-08-30T00:00:01;66.87;;;52.70;;
19358;SDS011;9815;52.334;20.890;2023-08-30T00:02:32;69.70;;;56.00;;
19358;SDS011;9815;52.334;20.890;2023-08-30T00:05:00;72.67;;;54.57;;
19358;SDS011;9815;52.334;20.890;2023-08-30T00:07:30;72.50;;;54.57;;
19358;SDS011;9815;52.334;20.890;2023-08-30T00:09:58;73.17;;;53.33;;
19358;SDS011;9815;52.334;20.890;2023-08-30T00:12:28;70.63;;;54.20;;
19358;SDS011;9815;52.334;20.890;2023-08-30T00:14:56;74.30;;;52.93;;
19358;SDS011;9815;52.334;20.890;2023-08-30T00:17:25;71.27;;;52.67;;
19358;SDS011;9815;52.334;20.890;2023-08-30T00:19:53;74.70;;;52.83;;
19358;SDS011;9815;52.334;20.890;2023-08-30T00:22:22;67.40;;;51.20;;
19358;SDS011;9815;52.334;20.890;2023-08-30T00:24:50;72.27;;;53.70;;
19358;SDS011;9815;52.334;20.890;2023-08-30T00:27:18;75.57;;;53.73;;
19358;SDS011;9815;52.334;20.890;2023-08-30T00:29:48;79.13;;;53.90;;
19358;SDS011;9815;52.334;20.890;2023-08-30T00:32:16;77.70;;;55.77;;
19358;SDS011;9815;52.334;20.890;2023-08-30T00:34:45;76.13;;;52.53;;
19358;SDS011;9815;52.334;20.890;2023-08-30T00:37:13;80.07;;;53.60;;
19358;SDS011;9815;52.334;20.890;2023-08-30T00:39:41;88.27;;;53.27;;
19358;SDS011;9815;52.334;20.890;2023-08-30T00:42:10;81.37;;;52.27;;
19358;SDS011;9815;52.334;20.890;2023-08-30T00:44:38;87.00;;;53.93;;
19358;SDS011;9815;52.334;20.890;2023-08-30T00:47:08;85.73;;;53.13;;
19358;SDS011;9815;52.334;20.890;2023-08-30T00:49:37;84.10;;;53.23;;
19358;SDS011;9815;52.334;20.890;2023-08-30T00:52:07;81.87;;;52.90;;
19358;SDS011;9815;52.334;20.890;2023-08-30T00:54:37;83.77;;;52.07;;
19358;SDS011;9815;52.334;20.890;2023-08-30T00:57:06;84.27;;;53.07;;
19358;SDS011;9815;52.334;20.890;2023-08-30T00:59:35;77.83;;;51.37;;
19358;SDS011;9815;52.334;20.890;2023-08-30T01:02:04;79.53;;;52.47;;
19358;SDS011;9815;52.334;20.890;2023-08-30T01:04:34;87.90;;;51.43;;
19358;SDS011;9815;52.334;20.890;2023-08-30T01:07:03;78.93;;;49.77;;
19358;SDS011;9815;52.334;20.890;2023-08-30T01:09:33;77.53;;;49.40;;
19358;SDS011;9815;52.334;20.890;2023-08-30T01:12:03;75.20;;;47.37;;
19358;SDS011;9815;52.334;20.890;2023-08-30T01:14:42;70.93;;;45.77;;
19358;SDS011;9815;52.334;20.890;2023-08-30T01:17:19;72.97;;;44.73;;
19358;SDS011;9815;52.334;20.890;2023-08-30T01:19:51;69.50;;;43.43;;
19358;SDS011;9815;52.334;20.890;2023-08-30T01:22:29;64.60;;;41.23;;
19358;SDS011;9815;52.334;20.890;2023-08-30T01:25:12;70.30;;;43.27;;
19358;SDS011;9815;52.334;20.890;2023-08-30T01:27:49;67.73;;;43.53;;
19358;SDS011;9815;52.334;20.890;2023-08-30T01:30:19;70.60;;;43.30;;
19358;SDS011;9815;52.334;20.890;2023-08-30T01:32:49;66.03;;;44.10;;
19358;SDS011;9815;52.334;20.890;2023-08-30T01:35:18;72.37;;;41.83;;
19358;SDS011;9815;52.334;20.890;2023-08-30T01:37:48;65.47;;;41.73;;
19358;SDS011;9815;52.334;20.890;2023-08-30T01:40:17;66.80;;;41.57;;
19358;SDS011;9815;52.334;20.890;2023-08-30T01:42:49;69.23;;;42.40;;
19358;SDS011;9815;52.334;20.890;2023-08-30T01:45:18;71.53;;;43.80;;
19358;SDS011;9815;52.334;20.890;2023-08-30T01:47:48;75.97;;;44.80;;
19358;SDS011;9815;52.334;20.890;2023-08-30T01:50:20;73.73;;;43.50;;
19358;SDS011;9815;52.334;20.890;2023-08-30T01:52:49;79.33;;;45.57;;
19358;SDS011;9815;52.334;20.890;2023-08-30T01:55:18;70.57;;;43.10;;
19358;SDS011;9815;52.334;20.890;2023-08-30T01:57:50;72.47;;;44.23;;
19358;SDS011;9815;52.334;20.890;2023-08-30T02:00:18;80.07;;;45.90;;
19358;SDS011;9815;52.334;20.890;2023-08-30T02:02:47;89.97;;;58.63;;
19358;SDS011;9815;52.334;20.890;2023-08-30T02:05:15;83.97;;;59.20;;
19358;SDS011;9815;52.334;20.890;2023-08-30T02:07:47;85.03;;;57.47;;
19358;SDS011;9815;52.334;20.890;2023-08-30T02:10:22;91.10;;;56.00;;
19358;SDS011;9815;52.334;20.890;2023-08-30T02:12:57;86.47;;;56.20;;
19358;SDS011;9815;52.334;20.890;2023-08-30T02:15:30;81.83;;;56.80;;
19358;SDS011;9815;52.334;20.890;2023-08-30T02:18:00;84.57;;;59.40;;
19358;SDS011;9815;52.334;20.890;2023-08-30T02:20:32;83.57;;;60.63;;
19358;SDS011;9815;52.334;20.890;2023-08-30T02:23:00;81.73;;;58.50;;
19358;SDS011;9815;52.334;20.890;2023-08-30T02:25:40;78.77;;;55.70;;
19358;SDS011;9815;52.334;20.890;2023-08-30T02:28:10;78.27;;;53.27;;
19358;SDS011;9815;52.334;20.890;2023-08-30T02:30:39;76.30;;;53.70;;
19358;SDS011;9815;52.334;20.890;2023-08-30T02:33:07;82.13;;;51.13;;
19358;SDS011;9815;52.334;20.890;2023-08-30T02:35:36;76.00;;;50.27;;
19358;SDS011;9815;52.334;20.890;2023-08-30T02:38:05;75.87;;;48.73;;
19358;SDS011;9815;52.334;20.890;2023-08-30T02:40:34;77.27;;;48.63;;
19358;SDS011;9815;52.334;20.890;2023-08-30T02:43:02;72.27;;;47.77;;
19358;SDS011;9815;52.334;20.890;2023-08-30T02:45:32;75.93;;;46.27;;
19358;SDS011;9815;52.334;20.890;2023-08-30T02:48:01;72.40;;;45.50;;
19358;SDS011;9815;52.334;20.890;2023-08-30T02:50:29;74.90;;;46.40;;
19358;SDS011;9815;52.334;20.890;2023-08-30T02:52:58;78.53;;;45.93;;
19358;SDS011;9815;52.334;20.890;2023-08-30T02:55:26;75.70;;;45.20;;
19358;SDS011;9815;52.334;20.890;2023-08-30T02:57:54;67.50;;;44.27;;
19358;SDS011;9815;52.334;20.890;2023-08-30T03:00:23;71.53;;;44.33;;
19358;SDS011;9815;52.334;20.890;2023-08-30T03:02:53;68.17;;;45.70;;
19358;SDS011;9815;52.334;20.890;2023-08-30T03:05:21;66.77;;;44.43;;
19358;SDS011;9815;52.334;20.890;2023-08-30T03:07:49;71.20;;;46.20;;
19358;SDS011;9815;52.334;20.890;2023-08-30T03:10:20;72.90;;;45.97;;
19358;SDS011;9815;52.334;20.890;2023-08-30T03:12:48;71.57;;;43.73;;
19358;SDS011;9815;52.334;20.890;2023-08-30T03:15:17;64.23;;;45.37;;
19358;SDS011;9815;52.334;20.890;2023-08-30T03:17:46;68.23;;;45.63;;
19358;SDS011;9815;52.334;20.890;2023-08-30T03:20:16;71.63;;;46.33;;
19358;SDS011;9815;52.334;20.890;2023-08-30T03:22:44;73.67;;;45.77;;
19358;SDS011;9815;52.334;20.890;2023-08-30T03:25:13;70.07;;;44.33;;
19358;SDS011;9815;52.334;20.890;2023-08-30T03:27:42;76.87;;;45.03;;
19358;SDS011;9815;52.334;20.890;2023-08-30T03:30:12;67.80;;;41.87;;
19358;SDS011;9815;52.334;20.890;2023-08-30T03:32:41;77.33;;;44.10;;
19358;SDS011;9815;52.334;20.890;2023-08-30T03:35:10;75.20;;;42.60;;
19358;SDS011;9815;52.334;20.890;2023-08-30T03:37:39;65.03;;;40.73;;
19358;SDS011;9815;52.334;20.890;2023-08-30T03:40:08;72.07;;;41.63;;
19358;SDS011;9815;52.334;20.890;2023-08-30T03:42:37;68.97;;;39.27;;
19358;SDS011;9815;52.334;20.890;2023-08-30T03:45:06;74.70;;;42.93;;
19358;SDS011;9815;52.334;20.890;2023-08-30T03:47:35;81.80;;;42.47;;
19358;SDS011;9815;52.334;20.890;2023-08-30T03:50:04;65.57;;;39.90;;
19358;SDS011;9815;52.334;20.890;2023-08-30T03:52:33;72.43;;;40.53;;
19358;SDS011;9815;52.334;20.890;2023-08-30T03:55:04;77.53;;;40.03;;
19358;SDS011;9815;52.334;20.890;2023-08-30T03:57:32;68.13;;;40.90;;
19358;SDS011;9815;52.334;20.890;2023-08-30T04:00:01;68.33;;;39.87;;
19358;SDS011;9815;52.334;20.890;2023-08-30T04:02:39;66.87;;;40.10;;
19358;SDS011;9815;52.334;20.890;2023-08-30T04:05:08;75.07;;;40.07;;
19358;SDS011;9815;52.334;20.890;2023-08-30T04:07:37;65.47;;;41.13;;
19358;SDS011;9815;52.334;20.890;2023-08-30T04:10:07;67.47;;;39.33;;
19358;SDS011;9815;52.334;20.890;2023-08-30T04:12:36;71.47;;;39.17;;
19358;SDS011;9815;52.334;20.890;2023-08-30T04:15:04;68.23;;;40.30;;
19358;SDS011;9815;52.334;20.890;2023-08-30T04:17:33;70.50;;;39.77;;
19358;SDS011;9815;52.334;20.890;2023-08-30T04:20:02;71.13;;;39.57;;
19358;SDS011;9815;52.334;20.890;2023-08-30T04:22:32;65.03;;;39.53;;
19358;SDS011;9815;52.334;20.890;2023-08-30T04:25:02;75.53;;;39.77;;
19358;SDS011;9815;52.334;20.890;2023-08-30T04:27:32;72.60;;;40.03;;
19358;SDS011;9815;52.334;20.890;2023-08-30T04:30:01;77.43;;;39.97;;
19358;SDS011;9815;52.334;20.890;2023-08-30T04:32:29;70.33;;;39.40;;
19358;SDS011;9815;52.334;20.890;2023-08-30T04:34:58;69.03;;;38.43;;
19358;SDS011;9815;52.334;20.890;2023-08-30T04:37:28;74.13;;;40.87;;
19358;SDS011;9815;52.334;20.890;2023-08-30T04:39:58;76.83;;;41.27;;
19358;SDS011;9815;52.334;20.890;2023-08-30T04:42:27;76.00;;;40.03;;
19358;SDS011;9815;52.334;20.890;2023-08-30T04:44:56;80.17;;;40.37;;
19358;SDS011;9815;52.334;20.890;2023-08-30T04:47:27;77.80;;;41.40;;
19358;SDS011;9815;52.334;20.890;2023-08-30T04:49:57;75.73;;;41.30;;
19358;SDS011;9815;52.334;20.890;2023-08-30T04:52:25;81.10;;;40.07;;
19358;SDS011;9815;52.334;20.890;2023-08-30T04:54:56;78.67;;;41.77;;
19358;SDS011;9815;52.334;20.890;2023-08-30T04:57:26;88.17;;;43.00;;
19358;SDS011;9815;52.334;20.890;2023-08-30T04:59:54;77.87;;;40.63;;
19358;SDS011;9815;52.334;20.890;2023-08-30T05:02:24;82.10;;;41.73;;
19358;SDS011;9815;52.334;20.890;2023-08-30T05:05:00;87.40;;;42.07;;
19358;SDS011;9815;52.334;20.890;2023-08-30T05:07:29;79.80;;;42.33;;
19358;SDS011;9815;52.334;20.890;2023-08-30T05:09:57;81.23;;;41.60;;
19358;SDS011;9815;52.334;20.890;2023-08-30T05:12:26;81.10;;;41.93;;
19358;SDS011;9815;52.334;20.890;2023-08-30T05:14:54;88.20;;;42.03;;
19358;SDS011;9815;52.334;20.890;2023-08-30T05:17:26;78.40;;;41.37;;
19358;SDS011;9815;52.334;20.890;2023-08-30T05:19:56;81.17;;;41.93;;
19358;SDS011;9815;52.334;20.890;2023-08-30T05:22:25;78.30;;;41.17;;
19358;SDS011;9815;52.334;20.890;2023-08-30T05:24:53;80.00;;;41.67;;
19358;SDS011;9815;52.334;20.890;2023-08-30T05:27:22;80.03;;;41.60;;
19358;SDS011;9815;52.334;20.890;2023-08-30T05:29:50;82.60;;;39.73;;
19358;SDS011;9815;52.334;20.890;2023-08-30T05:32:20;84.57;;;41.93;;
19358;SDS011;9815;52.334;20.890;2023-08-30T05:35:04;75.73;;;40.93;;
19358;SDS011;9815;52.334;20.890;2023-08-30T05:37:59;77.37;;;40.10;;
19358;SDS011;9815;52.334;20.890;2023-08-30T05:40:38;77.17;;;40.37;;
19358;SDS011;9815;52.334;20.890;2023-08-30T05:43:09;79.20;;;39.40;;
19358;SDS011;9815;52.334;20.890;2023-08-30T05:45:37;78.80;;;40.90;;
19358;SDS011;9815;52.334;20.890;2023-08-30T05:48:08;73.37;;;38.13;;
19358;SDS011;9815;52.334;20.890;2023-08-30T05:50:37;80.10;;;40.20;;
19358;SDS011;9815;52.334;20.890;2023-08-30T05:53:07;72.17;;;38.37;;
19358;SDS011;9815;52.334;20.890;2023-08-30T05:55:35;72.87;;;38.37;;
19358;SDS011;9815;52.334;20.890;2023-08-30T05:58:05;77.13;;;39.47;;
19358;SDS011;9815;52.334;20.890;2023-08-30T06:00:33;85.53;;;40.33;;
19358;SDS011;9815;52.334;20.890;2023-08-30T06:03:02;83.47;;;41.17;;
19358;SDS011;9815;52.334;20.890;2023-08-30T06:05:32;88.03;;;42.43;;
19358;SDS011;9815;52.334;20.890;2023-08-30T06:08:01;75.97;;;42.37;;
19358;SDS011;9815;52.334;20.890;2023-08-30T06:10:29;89.80;;;43.17;;
19358;SDS011;9815;52.334;20.890;2023-08-30T06:12:58;90.30;;;43.10;;
19358;SDS011;9815;52.334;20.890;2023-08-30T06:15:26;86.03;;;41.77;;
19358;SDS011;9815;52.334;20.890;2023-08-30T06:17:54;80.67;;;43.10;;
19358;SDS011;9815;52.334;20.890;2023-08-30T06:20:22;78.73;;;40.53;;
19358;SDS011;9815;52.334;20.890;2023-08-30T06:22:52;79.60;;;40.33;;
19358;SDS011;9815;52.334;20.890;2023-08-30T06:25:20;76.30;;;39.63;;
19358;SDS011;9815;52.334;20.890;2023-08-30T06:27:55;82.90;;;40.60;;
19358;SDS011;9815;52.334;20.890;2023-08-30T06:30:25;76.73;;;39.30;;
19358;SDS011;9815;52.334;20.890;2023-08-30T06:32:53;79.27;;;39.00;;
19358;SDS011;9815;52.334;20.890;2023-08-30T06:35:22;77.87;;;39.60;;
19358;SDS011;9815;52.334;20.890;2023-08-30T06:37:51;81.57;;;41.00;;
19358;SDS011;9815;52.334;20.890;2023-08-30T06:40:22;88.20;;;41.37;;
19358;SDS011;9815;52.334;20.890;2023-08-30T06:42:50;84.30;;;42.67;;
19358;SDS011;9815;52.334;20.890;2023-08-30T06:45:19;84.43;;;41.97;;
19358;SDS011;9815;52.334;20.890;2023-08-30T06:47:48;81.97;;;42.03;;
19358;SDS011;9815;52.334;20.890;2023-08-30T06:50:16;92.07;;;42.83;;
19358;SDS011;9815;52.334;20.890;2023-08-30T06:52:45;94.43;;;45.27;;
19358;SDS011;9815;52.334;20.890;2023-08-30T06:55:14;88.70;;;45.07;;
19358;SDS011;9815;52.334;20.890;2023-08-30T06:57:47;92.10;;;45.33;;
19358;SDS011;9815;52.334;20.890;2023-08-30T07:00:17;97.63;;;47.27;;
19358;SDS011;9815;52.334;20.890;2023-08-30T07:02:46;107.03;;;48.50;;
19358;SDS011;9815;52.334;20.890;2023-08-30T07:05:14;108.13;;;51.03;;
19358;SDS011;9815;52.334;20.890;2023-08-30T07:07:43;111.13;;;51.50;;
19358;SDS011;9815;52.334;20.890;2023-08-30T07:10:12;118.77;;;53.40;;
19358;SDS011;9815;52.334;20.890;2023-08-30T07:12:42;114.07;;;51.50;;
19358;SDS011;9815;52.334;20.890;2023-08-30T07:15:11;116.07;;;53.93;;
19358;SDS011;9815;52.334;20.890;2023-08-30T07:17:43;108.13;;;52.47;;
19358;SDS011;9815;52.334;20.890;2023-08-30T07:20:20;112.97;;;53.03;;
19358;SDS011;9815;52.334;20.890;2023-08-30T07:22:48;103.33;;;52.33;;
19358;SDS011;9815;52.334;20.890;2023-08-30T07:25:16;115.57;;;54.77;;
19358;SDS011;9815;52.334;20.890;2023-08-30T07:27:46;101.37;;;53.20;;
19358;SDS011;9815;52.334;20.890;2023-08-30T07:30:14;107.00;;;52.27;;
19358;SDS011;9815;52.334;20.890;2023-08-30T07:32:43;108.53;;;52.50;;
19358;SDS011;9815;52.334;20.890;2023-08-30T07:35:11;108.63;;;51.97;;
19358;SDS011;9815;52.334;20.890;2023-08-30T07:37:41;102.37;;;50.87;;
19358;SDS011;9815;52.334;20.890;2023-08-30T07:40:09;107.87;;;52.43;;
19358;SDS011;9815;52.334;20.890;2023-08-30T07:42:38;101.30;;;49.63;;
19358;SDS011;9815;52.334;20.890;2023-08-30T07:45:08;97.33;;;50.43;;
19358;SDS011;9815;52.334;20.890;2023-08-30T07:47:37;100.37;;;49.67;;
19358;SDS011;9815;52.334;20.890;2023-08-30T07:50:06;93.00;;;49.83;;
19358;SDS011;9815;52.334;20.890;2023-08-30T07:52:35;103.83;;;50.57;;
19358;SDS011;9815;52.334;20.890;2023-08-30T07:55:12;107.90;;;50.73;;
19358;SDS011;9815;52.334;20.890;2023-08-30T07:57:41;108.63;;;55.10;;
19358;SDS011;9815;52.334;20.890;2023-08-30T08:00:12;116.57;;;54.80;;
19358;SDS011;9815;52.334;20.890;2023-08-30T08:02:43;114.10;;;53.43;;
19358;SDS011;9815;52.334;20.890;2023-08-30T08:05:12;111.97;;;54.23;;
19358;SDS011;9815;52.334;20.890;2023-08-30T08:07:41;110.67;;;52.37;;
19358;SDS011;9815;52.334;20.890;2023-08-30T08:10:10;111.10;;;52.70;;
19358;SDS011;9815;52.334;20.890;2023-08-30T08:12:39;109.63;;;56.23;;
19358;SDS011;9815;52.334;20.890;2023-08-30T08:15:07;114.60;;;53.70;;
19358;SDS011;9815;52.334;20.890;2023-08-30T08:17:39;113.80;;;56.60;;
19358;SDS011;9815;52.334;20.890;2023-08-30T08:20:08;110.57;;;54.30;;
19358;SDS011;9815;52.334;20.890;2023-08-30T08:22:37;100.23;;;57.27;;
19358;SDS011;9815;52.334;20.890;2023-08-30T08:25:05;96.87;;;52.83;;
19358;SDS011;9815;52.334;20.890;2023-08-30T08:27:36;108.23;;;56.07;;
19358;SDS011;9815;52.334;20.890;2023-08-30T08:30:05;103.07;;;54.27;;
19358;SDS011;9815;52.334;20.890;2023-08-30T08:32:34;105.70;;;50.50;;
19358;SDS011;9815;52.334;20.890;2023-08-30T08:35:04;94.90;;;53.33;;
19358;SDS011;9815;52.334;20.890;2023-08-30T08:37:33;98.57;;;49.00;;
19358;SDS011;9815;52.334;20.890;2023-08-30T08:40:02;106.30;;;56.67;;
19358;SDS011;9815;52.334;20.890;2023-08-30T08:42:35;97.63;;;54.07;;
19358;SDS011;9815;52.334;20.890;2023-08-30T08:45:04;110.03;;;50.93;;
19358;SDS011;9815;52.334;20.890;2023-08-30T08:47:34;100.60;;;47.73;;
19358;SDS011;9815;52.334;20.890;2023-08-30T08:50:05;96.03;;;44.03;;
19358;SDS011;9815;52.334;20.890;2023-08-30T08:52:34;91.17;;;49.10;;
19358;SDS011;9815;52.334;20.890;2023-08-30T08:55:22;86.00;;;44.87;;
19358;SDS011;9815;52.334;20.890;2023-08-30T08:57:53;93.30;;;43.53;;
19358;SDS011;9815;52.334;20.890;2023-08-30T09:00:21;93.13;;;48.33;;
19358;SDS011;9815;52.334;20.890;2023-08-30T09:02:50;84.47;;;41.63;;
19358;SDS011;9815;52.334;20.890;2023-08-30T09:05:20;88.50;;;45.03;;
19358;SDS011;9815;52.334;20.890;2023-08-30T09:07:49;82.10;;;39.50;;
19358;SDS011;9815;52.334;20.890;2023-08-30T09:10:20;77.87;;;39.87;;
19358;SDS011;9815;52.334;20.890;2023-08-30T09:12:49;77.73;;;39.60;;
19358;SDS011;9815;52.334;20.890;2023-08-30T09:15:17;86.10;;;40.53;;
19358;SDS011;9815;52.334;20.890;2023-08-30T09:17:47;84.23;;;42.27;;
19358;SDS011;9815;52.334;20.890;2023-08-30T09:20:16;86.30;;;42.13;;
19358;SDS011;9815;52.334;20.890;2023-08-30T09:22:47;89.57;;;41.33;;
19358;SDS011;9815;52.334;20.890;2023-08-30T09:25:22;78.07;;;38.47;;
19358;SDS011;9815;52.334;20.890;2023-08-30T09:27:56;80.93;;;39.83;;
19358;SDS011;9815;52.334;20.890;2023-08-30T09:30:26;82.60;;;40.23;;
19358;SDS011;9815;52.334;20.890;2023-08-30T09:33:00;73.87;;;37.00;;
19358;SDS011;9815;52.334;20.890;2023-08-30T09:35:29;72.93;;;37.97;;
19358;SDS011;9815;52.334;20.890;2023-08-30T09:37:59;70.47;;;36.73;;
19358;SDS011;9815;52.334;20.890;2023-08-30T09:40:27;72.83;;;37.47;;
19358;SDS011;9815;52.334;20.890;2023-08-30T09:42:58;75.57;;;37.13;;
19358;SDS011;9815;52.334;20.890;2023-08-30T09:45:38;74.60;;;35.73;;
19358;SDS011;9815;52.334;20.890;2023-08-30T09:48:07;83.40;;;38.67;;
19358;SDS011;9815;52.334;20.890;2023-08-30T09:50:36;72.97;;;37.07;;
19358;SDS011;9815;52.334;20.890;2023-08-30T09:53:08;67.50;;;34.77;;
19358;SDS011;9815;52.334;20.890;2023-08-30T09:55:38;74.77;;;37.67;;
19358;SDS011;9815;52.334;20.890;2023-08-30T09:58:08;71.13;;;36.00;;
19358;SDS011;9815;52.334;20.890;2023-08-30T10:00:41;76.77;;;36.23;;
19358;SDS011;9815;52.334;20.890;2023-08-30T10:03:11;63.40;;;34.40;;
19358;SDS011;9815;52.334;20.890;2023-08-30T10:05:56;76.63;;;37.07;;
19358;SDS011;9815;52.334;20.890;2023-08-30T10:08:29;68.47;;;35.47;;
19358;SDS011;9815;52.334;20.890;2023-08-30T10:10:58;76.07;;;38.53;;
19358;SDS011;9815;52.334;20.890;2023-08-30T10:13:26;77.23;;;39.50;;
19358;SDS011;9815;52.334;20.890;2023-08-30T10:15:58;76.23;;;38.53;;
19358;SDS011;9815;52.334;20.890;2023-08-30T10:18:36;61.83;;;34.83;;
19358;SDS011;9815;52.334;20.890;2023-08-30T10:21:28;76.40;;;35.57;;
19358;SDS011;9815;52.334;20.890;2023-08-30T10:23:59;64.87;;;34.80;;
19358;SDS011;9815;52.334;20.890;2023-08-30T10:26:54;58.10;;;31.43;;
19358;SDS011;9815;52.334;20.890;2023-08-30T10:29:26;57.60;;;32.70;;
19358;SDS011;9815;52.334;20.890;2023-08-30T10:31:56;57.60;;;31.03;;
19358;SDS011;9815;52.334;20.890;2023-08-30T10:34:31;55.00;;;29.97;;
19358;SDS011;9815;52.334;20.890;2023-08-30T10:37:05;45.93;;;26.00;;
19358;SDS011;9815;52.334;20.890;2023-08-30T10:39:36;47.30;;;26.23;;
19358;SDS011;9815;52.334;20.890;2023-08-30T10:42:08;52.03;;;27.87;;
19358;SDS011;9815;52.334;20.890;2023-08-30T10:44:47;47.77;;;28.53;;
19358;SDS011;9815;52.334;20.890;2023-08-30T10:47:36;47.33;;;27.30;;
19358;SDS011;9815;52.334;20.890;2023-08-30T10:50:07;53.97;;;28.47;;
19358;SDS011;9815;52.334;20.890;2023-08-30T10:52:37;49.13;;;27.27;;
19358;SDS011;9815;52.334;20.890;2023-08-30T10:55:08;52.33;;;27.67;;
19358;SDS011;9815;52.334;20.890;2023-08-30T10:57:37;46.77;;;25.13;;
19358;SDS011;9815;52.334;20.890;2023-08-30T11:00:11;47.63;;;24.70;;
19358;SDS011;9815;52.334;20.890;2023-08-30T11:02:47;46.20;;;24.67;;
19358;SDS011;9815;52.334;20.890;2023-08-30T11:05:17;39.27;;;21.97;;
19358;SDS011;9815;52.334;20.890;2023-08-30T11:07:47;40.97;;;22.77;;
19358;SDS011;9815;52.334;20.890;2023-08-30T11:10:18;43.60;;;23.00;;
19358;SDS011;9815;52.334;20.890;2023-08-30T11:12:48;35.63;;;20.67;;
19358;SDS011;9815;52.334;20.890;2023-08-30T11:15:17;38.70;;;21.07;;
19358;SDS011;9815;52.334;20.890;2023-08-30T11:17:47;38.27;;;20.53;;
19358;SDS011;9815;52.334;20.890;2023-08-30T11:20:16;32.23;;;18.77;;
19358;SDS011;9815;52.334;20.890;2023-08-30T11:22:47;30.27;;;18.53;;
19358;SDS011;9815;52.334;20.890;2023-08-30T11:25:16;31.90;;;17.80;;
19358;SDS011;9815;52.334;20.890;2023-08-30T11:27:46;28.10;;;17.37;;
19358;SDS011;9815;52.334;20.890;2023-08-30T11:30:15;29.30;;;17.40;;
19358;SDS011;9815;52.334;20.890;2023-08-30T11:32:46;26.40;;;16.80;;
19358;SDS011;9815;52.334;20.890;2023-08-30T11:35:14;26.57;;;18.27;;
19358;SDS011;9815;52.334;20.890;2023-08-30T11:37:44;27.07;;;17.67;;
19358;SDS011;9815;52.334;20.890;2023-08-30T11:40:12;21.10;;;16.07;;
19358;SDS011;9815;52.334;20.890;2023-08-30T11:42:41;25.37;;;16.53;;
19358;SDS011;9815;52.334;20.890;2023-08-30T11:45:13;24.67;;;17.40;;
19358;SDS011;9815;52.334;20.890;2023-08-30T11:47:42;21.80;;;17.37;;
19358;SDS011;9815;52.334;20.890;2023-08-30T11:50:11;23.87;;;17.27;;
19358;SDS011;9815;52.334;20.890;2023-08-30T11:52:40;21.70;;;17.60;;
19358;SDS011;9815;52.334;20.890;2023-08-30T11:55:08;21.17;;;17.53;;
19358;SDS011;9815;52.334;20.890;2023-08-30T11:57:38;21.13;;;17.53;;
19358;SDS011;9815;52.334;20.890;2023-08-30T12:00:11;23.57;;;16.33;;
19358;SDS011;9815;52.334;20.890;2023-08-30T12:02:42;21.07;;;16.47;;
19358;SDS011;9815;52.334;20.890;2023-08-30T12:05:11;21.83;;;17.10;;
19358;SDS011;9815;52.334;20.890;2023-08-30T12:07:41;21.57;;;16.53;;
19358;SDS011;9815;52.334;20.890;2023-08-30T12:10:10;24.33;;;18.03;;
19358;SDS011;9815;52.334;20.890;2023-08-30T12:12:43;22.03;;;18.50;;
19358;SDS011;9815;52.334;20.890;2023-08-30T12:15:13;23.50;;;17.50;;
19358;SDS011;9815;52.334;20.890;2023-08-30T12:17:43;18.70;;;15.87;;
19358;SDS011;9815;52.334;20.890;2023-08-30T12:20:15;20.90;;;15.60;;
19358;SDS011;9815;52.334;20.890;2023-08-30T12:22:47;16.07;;;14.37;;
19358;SDS011;9815;52.334;20.890;2023-08-30T12:25:21;18.83;;;15.43;;
19358;SDS011;9815;52.334;20.890;2023-08-30T12:27:50;19.50;;;14.50;;
19358;SDS011;9815;52.334;20.890;2023-08-30T12:30:20;18.70;;;15.97;;
19358;SDS011;9815;52.334;20.890;2023-08-30T12:32:59;18.43;;;15.93;;
19358;SDS011;9815;52.334;20.890;2023-08-30T12:35:29;17.83;;;15.33;;
19358;SDS011;9815;52.334;20.890;2023-08-30T12:37:59;18.97;;;15.17;;
19358;SDS011;9815;52.334;20.890;2023-08-30T12:40:27;16.03;;;14.33;;
19358;SDS011;9815;52.334;20.890;2023-08-30T12:42:55;19.63;;;15.33;;
19358;SDS011;9815;52.334;20.890;2023-08-30T12:45:25;18.77;;;14.80;;
19358;SDS011;9815;52.334;20.890;2023-08-30T12:47:53;19.90;;;16.30;;
19358;SDS011;9815;52.334;20.890;2023-08-30T12:50:22;21.40;;;16.47;;
19358;SDS011;9815;52.334;20.890;2023-08-30T12:52:50;20.67;;;16.77;;
19358;SDS011;9815;52.334;20.890;2023-08-30T12:55:18;20.63;;;17.17;;
19358;SDS011;9815;52.334;20.890;2023-08-30T12:57:46;20.67;;;16.57;;
19358;SDS011;9815;52.334;20.890;2023-08-30T13:00:15;26.13;;;20.10;;
19358;SDS011;9815;52.334;20.890;2023-08-30T13:02:45;22.63;;;17.40;;
19358;SDS011;9815;52.334;20.890;2023-08-30T13:05:13;26.03;;;19.27;;
19358;SDS011;9815;52.334;20.890;2023-08-30T13:07:41;22.40;;;18.70;;
19358;SDS011;9815;52.334;20.890;2023-08-30T13:10:10;27.40;;;19.73;;
19358;SDS011;9815;52.334;20.890;2023-08-30T13:12:38;29.90;;;21.30;;
19358;SDS011;9815;52.334;20.890;2023-08-30T13:15:09;25.63;;;20.27;;
19358;SDS011;9815;52.334;20.890;2023-08-30T13:17:38;30.23;;;22.90;;
19358;SDS011;9815;52.334;20.890;2023-08-30T13:20:08;25.57;;;20.50;;
19358;SDS011;9815;52.334;20.890;2023-08-30T13:22:37;24.70;;;20.40;;
19358;SDS011;9815;52.334;20.890;2023-08-30T13:25:06;27.03;;;19.47;;
19358;SDS011;9815;52.334;20.890;2023-08-30T13:27:35;25.97;;;22.07;;
19358;SDS011;9815;52.334;20.890;2023-08-30T13:30:03;28.33;;;21.17;;
19358;SDS011;9815;52.334;20.890;2023-08-30T13:32:33;27.07;;;21.43;;
19358;SDS011;9815;52.334;20.890;2023-08-30T13:35:01;28.27;;;20.83;;
19358;SDS011;9815;52.334;20.890;2023-08-30T13:37:31;26.43;;;20.80;;
19358;SDS011;9815;52.334;20.890;2023-08-30T13:39:59;26.63;;;20.10;;
19358;SDS011;9815;52.334;20.890;2023-08-30T13:42:32;28.23;;;18.90;;
19358;SDS011;9815;52.334;20.890;2023-08-30T13:45:01;20.43;;;17.43;;
19358;SDS011;9815;52.334;20.890;2023-08-30T13:47:30;20.07;;;16.30;;
19358;SDS011;9815;52.334;20.890;2023-08-30T13:49:59;21.20;;;17.33;;
19358;SDS011;9815;52.334;20.890;2023-08-30T13:52:28;21.53;;;16.73;;
19358;SDS011;9815;52.334;20.890;2023-08-30T13:54:58;20.07;;;17.60;;
19358;SDS011;9815;52.334;20.890;2023-08-30T13:57:26;16.80;;;15.00;;
19358;SDS011;9815;52.334;20.890;2023-08-30T13:59:54;20.70;;;16.07;;
19358;SDS011;9815;52.334;20.890;2023-08-30T14:02:22;17.23;;;15.43;;
19358;SDS011;9815;52.334;20.890;2023-08-30T14:04:52;16.33;;;14.63;;
19358;SDS011;9815;52.334;20.890;2023-08-30T14:07:20;19.47;;;15.53;;
19358;SDS011;9815;52.334;20.890;2023-08-30T14:09:49;15.83;;;14.23;;
19358;SDS011;9815;52.334;20.890;2023-08-30T14:12:18;16.37;;;14.50;;
19358;SDS011;9815;52.334;20.890;2023-08-30T14:14:47;17.17;;;14.60;;
19358;SDS011;9815;52.334;20.890;2023-08-30T14:17:15;15.83;;;13.13;;
19358;SDS011;9815;52.334;20.890;2023-08-30T14:19:45;16.10;;;14.20;;
19358;SDS011;9815;52.334;20.890;2023-08-30T14:22:14;15.33;;;13.37;;
19358;SDS011;9815;52.334;20.890;2023-08-30T14:24:42;15.17;;;13.57;;
19358;SDS011;9815;52.334;20.890;2023-08-30T14:27:29;18.97;;;14.47;;
19358;SDS011;9815;52.334;20.890;2023-08-30T14:29:58;15.23;;;13.43;;
19358;SDS011;9815;52.334;20.890;2023-08-30T14:32:27;20.10;;;18.00;;
19358;SDS011;9815;52.334;20.890;2023-08-30T14:34:55;20.93;;;19.13;;
19358;SDS011;9815;52.334;20.890;2023-08-30T14:37:23;18.17;;;16.57;;